Time;durP1;ratioP1;P1;durP2;ratioP2;P2;SDS_P1;SDS_P2;PMS_P1;PMS_P2;Temp;Humidity;BMP_temperature;BMP_pressure;BME280_temperature;BME280_humidity;BME280_pressure;Samples;Min_cycle;Max_cycle;Signal;HPM_P1;HPM_P2
2021/04/20 00:01:46;;;;;;;45.83;32.93;;;9.20;99.90;;;;;;5071995;28;20236;-74
2021/04/20 00:04:11;;;;;;;44.83;31.60;;;9.20;99.90;;;;;;5072786;28;20279;-74
2021/04/20 00:06:37;;;;;;;46.83;33.10;;;9.20;99.90;;;;;;5072844;28;20166;-74
2021/04/20 00:09:08;;;;;;;50.10;31.60;;;9.10;99.90;;;;;;5071870;28;20166;-74
2021/04/20 00:11:35;;;;;;;47.50;32.23;;;9.10;99.90;;;;;;5072677;28;20178;-74
2021/04/20 00:14:01;;;;;;;48.47;31.70;;;9.00;99.90;;;;;;5071552;28;20932;-74
2021/04/20 00:16:27;;;;;;;43.73;31.57;;;8.90;99.90;;;;;;5072373;28;20397;-74
2021/04/20 00:18:52;;;;;;;46.40;31.93;;;8.90;99.90;;;;;;5072584;28;20170;-74
2021/04/20 00:21:18;;;;;;;49.17;31.97;;;8.90;99.90;;;;;;5072706;28;20400;-74
2021/04/20 00:23:44;;;;;;;46.80;32.33;;;8.80;99.90;;;;;;5071575;28;20670;-74
2021/04/20 00:26:09;;;;;;;42.63;31.23;;;8.80;99.90;;;;;;5072568;28;20428;-74
2021/04/20 00:28:35;;;;;;;45.63;30.97;;;8.80;99.90;;;;;;5052910;28;20205;-74
2021/04/20 00:31:00;;;;;;;46.93;34.03;;;8.80;99.90;;;;;;5051307;28;20183;-74
2021/04/20 00:33:26;;;;;;;47.07;32.90;;;8.80;99.90;;;;;;5055882;28;20195;-74
2021/04/20 00:35:52;;;;;;;46.47;33.03;;;8.80;99.90;;;;;;5071136;28;20233;-74
2021/04/20 00:38:18;;;;;;;38.83;29.63;;;8.70;99.90;;;;;;5072536;28;20174;-74
2021/04/20 00:40:44;;;;;;;47.83;34.03;;;8.70;99.90;;;;;;5071957;28;20428;-74
2021/04/20 00:43:10;;;;;;;50.00;32.30;;;8.70;99.90;;;;;;5072086;28;20192;-74
2021/04/20 00:45:37;;;;;;;48.53;31.87;;;8.60;99.90;;;;;;5072294;28;20235;-74
2021/04/20 00:48:04;;;;;;;42.77;30.60;;;8.60;99.90;;;;;;5071283;28;20412;-74
2021/04/20 00:50:39;;;;;;;40.30;29.80;;;8.50;99.90;;;;;;5071738;28;20420;-74
2021/04/20 00:53:06;;;;;;;49.73;31.53;;;8.40;99.90;;;;;;5071691;28;20452;-74
2021/04/20 00:55:31;;;;;;;45.90;31.47;;;8.40;99.90;;;;;;5070783;28;20459;-74
2021/04/20 00:57:57;;;;;;;45.77;31.37;;;8.30;99.90;;;;;;5072388;28;20396;-74
2021/04/20 01:00:27;;;;;;;53.80;37.47;;;8.40;99.90;;;;;;5073329;28;20158;-74
2021/04/20 01:02:54;;;;;;;41.70;30.90;;;8.30;99.90;;;;;;5074220;28;20194;-74
2021/04/20 01:05:39;;;;;;;51.07;32.77;;;8.20;99.90;;;;;;5074255;28;20407;-74
2021/04/20 01:08:14;;;;;;;66.43;40.30;;;8.10;99.90;;;;;;5074112;28;20464;-74
2021/04/20 01:10:49;;;;;;;57.50;38.07;;;8.10;99.90;;;;;;5073477;28;20461;-74
2021/04/20 01:13:15;;;;;;;60.20;37.37;;;8.10;99.90;;;;;;5073493;28;20440;-74
2021/04/20 01:15:46;;;;;;;56.10;38.53;;;8.20;99.90;;;;;;5073757;28;20451;-74
2021/04/20 01:18:16;;;;;;;55.57;39.10;;;8.20;99.90;;;;;;5071446;28;20420;-74
2021/04/20 01:20:44;;;;;;;64.70;43.30;;;8.20;99.90;;;;;;5073740;28;20399;-74
2021/04/20 01:23:12;;;;;;;66.50;42.00;;;8.00;99.90;;;;;;5073651;28;20435;-74
2021/04/20 01:25:39;;;;;;;63.40;40.40;;;8.00;99.90;;;;;;5072513;28;20944;-74
2021/04/20 01:28:05;;;;;;;67.60;40.83;;;8.00;99.90;;;;;;5072990;28;20421;-74
2021/04/20 01:30:33;;;;;;;69.80;41.60;;;8.10;99.90;;;;;;5071630;28;20456;-75
2021/04/20 01:33:03;;;;;;;60.80;41.40;;;8.10;99.90;;;;;;5073178;28;20467;-74
2021/04/20 01:35:29;;;;;;;63.33;40.50;;;8.00;99.90;;;;;;5073786;28;20444;-75
2021/04/20 01:37:54;;;;;;;63.27;38.20;;;8.00;99.90;;;;;;5070904;28;20515;-74
2021/04/20 01:40:20;;;;;;;65.37;39.47;;;8.00;99.90;;;;;;5069103;28;20626;-74
2021/04/20 01:42:45;;;;;;;52.10;37.17;;;7.90;99.90;;;;;;5073682;28;20678;-74
2021/04/20 01:45:11;;;;;;;56.37;39.30;;;7.80;99.90;;;;;;5073733;28;20253;-74
2021/04/20 01:47:37;;;;;;;60.20;39.00;;;7.80;99.90;;;;;;5073239;28;20217;-74
2021/04/20 01:50:04;;;;;;;60.23;38.47;;;7.80;99.90;;;;;;5073250;28;20169;-74
2021/04/20 01:52:30;;;;;;;59.23;38.50;;;7.70;99.90;;;;;;5073333;28;20219;-75
2021/04/20 01:54:56;;;;;;;59.57;39.30;;;7.70;99.90;;;;;;5073414;28;20560;-74
2021/04/20 01:57:22;;;;;;;65.77;43.63;;;7.70;99.90;;;;;;5073257;28;20560;-74
2021/04/20 01:59:48;;;;;;;57.73;37.87;;;7.70;99.90;;;;;;5072657;28;20194;-74
2021/04/20 02:02:14;;;;;;;58.77;36.23;;;7.70;99.90;;;;;;5073607;28;20420;-75
2021/04/20 02:04:40;;;;;;;54.80;35.67;;;7.70;99.90;;;;;;5073478;28;20397;-74
2021/04/20 02:07:06;;;;;;;53.73;36.30;;;7.70;99.90;;;;;;5072875;28;20174;-75
2021/04/20 02:09:32;;;;;;;57.30;35.17;;;7.70;99.90;;;;;;5072856;28;20249;-74
2021/04/20 02:12:00;;;;;;;48.23;32.33;;;7.70;99.90;;;;;;5072050;28;20475;-74
2021/04/20 02:14:26;;;;;;;49.73;33.73;;;7.70;99.90;;;;;;5069458;28;20195;-74
2021/04/20 02:16:53;;;;;;;47.50;33.70;;;7.60;99.90;;;;;;5069125;28;20409;-74
2021/04/20 02:19:20;;;;;;;46.77;34.40;;;7.60;99.90;;;;;;5071688;28;20435;-73
2021/04/20 02:21:46;;;;;;;41.47;27.60;;;7.50;99.90;;;;;;5071202;28;20412;-74
2021/04/20 02:24:15;;;;;;;37.50;25.10;;;7.30;99.90;;;;;;5071008;28;20447;-75
2021/04/20 02:26:42;;;;;;;38.80;27.63;;;7.00;99.90;;;;;;5071221;28;20416;-75
2021/04/20 02:29:09;;;;;;;46.53;33.03;;;6.80;99.90;;;;;;5071330;28;20454;-74
2021/04/20 02:31:37;;;;;;;55.73;34.73;;;6.70;99.90;;;;;;5071106;28;20421;-73
2021/04/20 02:34:09;;;;;;;59.73;38.10;;;6.70;99.90;;;;;;5071259;28;20759;-73
2021/04/20 02:36:36;;;;;;;70.83;39.90;;;6.70;99.90;;;;;;5071194;28;20747;-74
2021/04/20 02:39:03;;;;;;;63.50;39.17;;;6.70;99.90;;;;;;5072722;28;20389;-75
2021/04/20 02:41:29;;;;;;;66.27;42.00;;;6.70;99.90;;;;;;5074318;28;20473;-74
2021/04/20 02:43:55;;;;;;;62.40;39.53;;;6.70;99.90;;;;;;5074926;28;20477;-74
2021/04/20 02:46:21;;;;;;;63.60;40.23;;;6.70;99.90;;;;;;5074992;28;20790;-73
2021/04/20 02:48:49;;;;;;;62.37;38.93;;;6.70;99.90;;;;;;5074131;28;20448;-74
2021/04/20 02:51:15;;;;;;;115.13;70.40;;;6.80;99.90;;;;;;5073053;28;20174;-75
2021/04/20 02:53:43;;;;;;;55.17;37.13;;;6.90;99.90;;;;;;5074804;28;20405;-74
2021/04/20 02:56:12;;;;;;;62.23;36.73;;;7.00;99.90;;;;;;5074340;28;20468;-75
2021/04/20 02:58:38;;;;;;;58.60;38.90;;;7.00;99.90;;;;;;5073181;28;20419;-74
2021/04/20 03:01:07;;;;;;;54.30;35.30;;;7.10;99.90;;;;;;5074182;28;20428;-74
2021/04/20 03:03:40;;;;;;;57.53;35.97;;;7.00;99.90;;;;;;5074359;28;20412;-74
2021/04/20 03:06:06;;;;;;;56.67;35.57;;;7.00;99.90;;;;;;5074458;28;20412;-75
2021/04/20 03:08:31;;;;;;;53.93;35.93;;;7.00;99.90;;;;;;5074277;28;20424;-75
2021/04/20 03:11:03;;;;;;;54.37;35.77;;;7.10;99.90;;;;;;5073900;28;20481;-75
2021/04/20 03:13:28;;;;;;;46.43;33.60;;;7.10;99.90;;;;;;5074189;28;20198;-74
2021/04/20 03:15:55;;;;;;;49.43;34.10;;;7.10;99.90;;;;;;5073994;28;20577;-74
2021/04/20 03:18:20;;;;;;;54.07;33.37;;;7.20;99.90;;;;;;5073810;28;21121;-74
2021/04/20 03:20:46;;;;;;;48.67;33.50;;;7.20;99.90;;;;;;5073995;28;20483;-74
2021/04/20 03:23:13;;;;;;;45.73;33.13;;;7.10;99.90;;;;;;5074123;28;20178;-75
2021/04/20 03:25:40;;;;;;;44.03;31.40;;;7.20;99.90;;;;;;5074188;28;20531;-74
2021/04/20 03:28:06;;;;;;;44.13;31.00;;;7.10;99.90;;;;;;5073865;28;20524;-75
2021/04/20 03:30:33;;;;;;;51.30;33.50;;;7.10;99.90;;;;;;5073627;28;20509;-75
2021/04/20 03:33:17;;;;;;;47.03;31.70;;;7.10;99.90;;;;;;5073728;28;20528;-74
2021/04/20 03:35:51;;;;;;;45.10;33.50;;;7.10;99.90;;;;;;5073831;28;20459;-75
2021/04/20 03:38:38;;;;;;;48.37;31.57;;;7.10;99.90;;;;;;5073710;28;20414;-75
2021/04/20 03:41:10;;;;;;;53.70;33.53;;;7.00;99.90;;;;;;5072091;28;20481;-75
2021/04/20 03:43:39;;;;;;;41.20;30.07;;;7.00;99.90;;;;;;5072576;28;20417;-75
2021/04/20 03:46:13;;;;;;;46.77;30.60;;;7.00;99.90;;;;;;5072466;28;20408;-74
2021/04/20 03:48:48;;;;;;;49.33;32.80;;;6.90;99.90;;;;;;5073263;28;20548;-75
2021/04/20 03:51:15;;;;;;;44.80;28.23;;;6.90;99.90;;;;;;5072105;28;20420;-75
2021/04/20 03:53:46;;;;;;;42.90;27.73;;;6.90;99.90;;;;;;5073502;28;20470;-75
2021/04/20 03:56:13;;;;;;;45.60;28.50;;;6.80;99.90;;;;;;5072300;28;20643;-75
2021/04/20 03:58:39;;;;;;;41.30;27.87;;;6.60;99.90;;;;;;5073332;28;20427;-75
2021/04/20 04:01:08;;;;;;;44.23;30.50;;;6.60;99.90;;;;;;5073144;28;20554;-75
2021/04/20 04:03:36;;;;;;;52.27;33.43;;;6.50;99.90;;;;;;5073469;28;20480;-74
2021/04/20 04:06:03;;;;;;;65.60;43.50;;;6.40;99.90;;;;;;5071689;28;20452;-74
2021/04/20 04:08:31;;;;;;;65.90;40.20;;;6.30;99.90;;;;;;5071184;28;20432;-75
2021/04/20 04:10:59;;;;;;;78.83;42.27;;;6.30;99.90;;;;;;5072089;28;20444;-74
2021/04/20 04:13:27;;;;;;;68.43;41.67;;;6.30;99.90;;;;;;5074680;28;20447;-75
2021/04/20 04:15:59;;;;;;;81.83;46.17;;;6.30;99.90;;;;;;5062987;28;20452;-75
2021/04/20 04:18:25;;;;;;;81.80;45.63;;;6.30;99.90;;;;;;5072058;28;20451;-75
2021/04/20 04:20:51;;;;;;;83.40;48.33;;;6.20;99.90;;;;;;5071039;28;20452;-74
2021/04/20 04:23:17;;;;;;;70.17;40.20;;;6.30;99.90;;;;;;5067417;28;20444;-75
2021/04/20 04:25:53;;;;;;;81.53;46.83;;;6.30;99.90;;;;;;5073302;28;20408;-74
2021/04/20 04:28:20;;;;;;;77.00;43.53;;;6.30;99.90;;;;;;5072279;28;20181;-75
2021/04/20 04:30:47;;;;;;;74.83;44.33;;;6.30;99.90;;;;;;5068563;28;20439;-74
2021/04/20 04:33:13;;;;;;;78.37;46.13;;;6.30;99.90;;;;;;5073650;28;20460;-74
2021/04/20 04:35:42;;;;;;;71.60;43.07;;;6.30;99.90;;;;;;5088882;28;20475;-74
2021/04/20 04:38:08;;;;;;;75.13;40.77;;;6.30;99.90;;;;;;5059841;28;20428;-75
2021/04/20 04:40:34;;;;;;;67.20;42.70;;;6.30;99.90;;;;;;5081437;28;20448;-74
2021/04/20 04:43:01;;;;;;;75.87;43.77;;;6.20;99.90;;;;;;5070251;28;20460;-75
2021/04/20 04:45:28;;;;;;;77.60;44.63;;;6.20;99.90;;;;;;5072584;28;20465;-74
2021/04/20 04:47:54;;;;;;;65.43;41.97;;;6.20;99.90;;;;;;5071529;28;20432;-74
2021/04/20 04:50:20;;;;;;;72.20;40.47;;;6.30;99.90;;;;;;5074700;28;20423;-75
2021/04/20 04:52:47;;;;;;;68.00;45.07;;;6.30;99.90;;;;;;5091500;28;20948;-74
2021/04/20 04:55:15;;;;;;;75.97;43.97;;;6.30;99.90;;;;;;5092636;28;20290;-74
2021/04/20 04:57:44;;;;;;;65.63;40.30;;;6.40;99.90;;;;;;5076637;28;20428;-74
2021/04/20 05:00:10;;;;;;;69.03;41.97;;;6.40;99.90;;;;;;5071966;28;20432;-74
2021/04/20 05:02:38;;;;;;;71.43;43.90;;;6.40;99.90;;;;;;5077230;28;20590;-75
2021/04/20 05:05:06;;;;;;;70.87;40.30;;;6.50;99.90;;;;;;5078403;28;20457;-73
2021/04/20 05:07:32;;;;;;;66.57;41.13;;;6.40;99.90;;;;;;5069310;28;20960;-75
2021/04/20 05:10:07;;;;;;;64.90;40.53;;;6.40;99.90;;;;;;5079597;28;20522;-75
2021/04/20 05:12:33;;;;;;;59.10;38.10;;;6.50;99.90;;;;;;5083180;28;20450;-75
2021/04/20 05:15:15;;;;;;;62.30;40.00;;;6.60;99.90;;;;;;5072188;28;20547;-74
2021/04/20 05:17:41;;;;;;;58.47;36.10;;;6.70;99.90;;;;;;5072009;28;20412;-75
2021/04/20 05:20:13;;;;;;;58.30;34.47;;;6.70;99.90;;;;;;5064515;28;20421;-75
2021/04/20 05:22:38;;;;;;;54.17;36.20;;;6.80;99.90;;;;;;5059919;28;20983;-75
2021/04/20 05:25:08;;;;;;;49.10;33.23;;;6.90;99.90;;;;;;5083054;28;20431;-75
2021/04/20 05:27:34;;;;;;;44.33;30.83;;;7.00;99.90;;;;;;5088462;28;20410;-75
2021/04/20 05:30:00;;;;;;;42.07;29.07;;;7.10;99.90;;;;;;5070978;28;20428;-75
2021/04/20 05:32:26;;;;;;;45.67;31.00;;;7.20;99.90;;;;;;5085055;28;20305;-74
2021/04/20 05:34:51;;;;;;;45.10;30.17;;;7.30;99.90;;;;;;5082778;28;20440;-74
2021/04/20 05:37:40;;;;;;;43.30;29.70;;;7.40;99.90;;;;;;5086621;28;20181;-73
2021/04/20 05:40:22;;;;;;;39.47;28.70;;;7.70;99.90;;;;;;5050255;28;20190;-75
2021/04/20 05:42:50;;;;;;;41.23;28.13;;;8.10;99.90;;;;;;5078458;28;20474;-74
2021/04/20 05:45:15;;;;;;;39.87;27.40;;;8.60;99.90;;;;;;5087677;28;20427;-75
2021/04/20 05:47:43;;;;;;;40.37;28.13;;;9.10;99.90;;;;;;5089973;28;20400;-75
2021/04/20 05:50:13;;;;;;;43.00;28.00;;;9.50;99.90;;;;;;5091643;28;20168;-75
2021/04/20 05:52:39;;;;;;;36.23;26.23;;;10.00;99.90;;;;;;5081440;28;20825;-75
2021/04/20 05:55:07;;;;;;;38.43;28.47;;;10.20;99.90;;;;;;5073922;28;20516;-75
2021/04/20 05:57:32;;;;;;;34.30;25.70;;;10.30;99.90;;;;;;5083179;28;20226;-75
2021/04/20 05:59:59;;;;;;;41.57;27.30;;;10.60;99.90;;;;;;5081870;28;20924;-74
2021/04/20 06:02:34;;;;;;;36.70;26.30;;;10.80;99.90;;;;;;5075274;28;20204;-73
2021/04/20 06:05:05;;;;;;;37.80;28.50;;;11.00;99.90;;;;;;5085298;28;20427;-75
2021/04/20 06:07:35;;;;;;;43.30;26.80;;;11.20;99.90;;;;;;5084233;28;20473;-75
2021/04/20 06:10:05;;;;;;;40.43;26.80;;;11.20;99.90;;;;;;5073087;28;20452;-74
2021/04/20 06:12:30;;;;;;;42.60;29.13;;;11.50;99.90;;;;;;5082187;28;20439;-75
2021/04/20 06:14:56;;;;;;;36.90;27.23;;;11.20;99.90;;;;;;5086922;28;20454;-75
2021/04/20 06:17:22;;;;;;;38.07;28.10;;;10.80;99.90;;;;;;5073758;28;20212;-75
2021/04/20 06:19:48;;;;;;;39.03;27.37;;;10.70;99.90;;;;;;5075229;28;20193;-75
2021/04/20 06:22:16;;;;;;;38.10;28.30;;;10.60;99.90;;;;;;5074336;28;20790;-75
2021/04/20 06:24:42;;;;;;;41.97;28.27;;;10.90;99.90;;;;;;5085746;28;20444;-75
2021/04/20 06:27:09;;;;;;;41.33;27.17;;;11.20;99.90;;;;;;5074305;28;20426;-75
2021/04/20 06:29:36;;;;;;;43.47;29.40;;;11.10;99.90;;;;;;5072797;28;20447;-75
2021/04/20 06:32:02;;;;;;;43.17;29.73;;;11.60;99.90;;;;;;5068328;28;20458;-75
2021/04/20 06:34:28;;;;;;;43.00;31.53;;;12.10;99.90;;;;;;5080447;28;20463;-75
2021/04/20 06:36:54;;;;;;;38.47;29.43;;;12.80;99.90;;;;;;5080159;28;20461;-76
2021/04/20 06:39:21;;;;;;;37.93;28.90;;;13.40;99.90;;;;;;5085054;28;20455;-75
2021/04/20 06:41:52;;;;;;;40.30;28.47;;;14.10;99.90;;;;;;5090642;28;20459;-76
2021/04/20 06:44:23;;;;;;;32.20;25.87;;;14.60;99.90;;;;;;5085387;28;20416;-75
2021/04/20 06:46:55;;;;;;;36.10;28.50;;;14.70;99.90;;;;;;5074006;28;20448;-76
2021/04/20 06:49:39;;;;;;;40.60;30.30;;;15.10;99.90;;;;;;5086830;28;20473;-75
2021/04/20 06:52:10;;;;;;;40.70;29.70;;;15.20;99.90;;;;;;5054807;28;21013;-75
2021/04/20 06:54:41;;;;;;;37.60;27.60;;;15.50;99.90;;;;;;5084058;28;20500;-79
2021/04/20 06:57:27;;;;;;;43.77;30.83;;;15.70;99.90;;;;;;5098358;28;20802;-79
2021/04/20 07:00:14;;;;;;;40.13;30.30;;;15.60;99.90;;;;;;5060066;28;20405;-79
2021/04/20 07:03:04;;;;;;;42.77;29.70;;;15.30;99.90;;;;;;5059583;28;20433;-80
2021/04/20 07:05:39;;;;;;;40.63;30.60;;;16.10;99.90;;;;;;5077617;28;20466;-80
2021/04/20 07:08:39;;;;;;;56.00;32.23;;;16.40;99.90;;;;;;5090560;28;20433;-80
2021/04/20 07:11:10;;;;;;;39.87;30.73;;;16.20;99.90;;;;;;5079926;28;20454;-80
2021/04/20 07:13:37;;;;;;;38.90;30.80;;;16.30;99.90;;;;;;5085844;28;20432;-80
2021/04/20 07:16:25;;;;;;;38.67;29.97;;;16.80;99.90;;;;;;5092081;28;20466;-80
2021/04/20 07:19:21;;;;;;;38.20;31.20;;;17.20;99.90;;;;;;5088340;28;20511;-80
2021/04/20 07:21:54;;;;;;;40.57;31.33;;;17.20;99.90;;;;;;5077692;28;20964;-81
2021/04/20 07:24:25;;;;;;;41.13;32.53;;;17.70;99.90;;;;;;5078749;28;20440;-81
2021/04/20 07:27:06;;;;;;;42.13;34.07;;;17.80;99.90;;;;;;5080174;28;21010;-81
2021/04/20 07:30:01;;;;;;;41.80;32.00;;;18.90;99.90;;;;;;5095595;28;20416;-81
2021/04/20 07:32:50;;;;;;;38.53;32.57;;;19.60;99.90;;;;;;5069344;28;20444;-81
2021/04/20 07:35:44;;;;;;;40.77;33.70;;;19.90;99.90;;;;;;5065442;28;20494;-81
2021/04/20 07:38:33;;;;;;;47.43;34.10;;;20.20;99.90;;;;;;5078550;28;20427;-81
2021/04/20 07:41:17;;;;;;;41.13;32.23;;;20.00;99.90;;;;;;5097100;28;20439;-78
2021/04/20 07:43:57;;;;;;;42.17;34.53;;;20.60;99.90;;;;;;5071452;28;20938;-78
2021/04/20 07:46:44;;;;;;;43.23;35.20;;;20.50;99.90;;;;;;5078568;28;20423;-78
2021/04/20 07:49:26;;;;;;;45.23;36.17;;;20.50;99.90;;;;;;5087433;28;20416;-79
2021/04/20 07:52:05;;;;;;;40.70;33.70;;;20.40;99.90;;;;;;5093426;28;20451;-79
2021/04/20 07:55:06;;;;;;;47.90;36.63;;;20.90;99.90;;;;;;5085864;28;20487;-79
2021/04/20 07:58:00;;;;;;;43.43;34.60;;;21.10;99.90;;;;;;5053895;28;20448;-79
2021/04/20 08:00:34;;;;;;;43.03;34.27;;;21.10;99.90;;;;;;5080273;28;20430;-79
2021/04/20 08:03:15;;;;;;;50.13;36.40;;;21.30;99.90;;;;;;5079007;28;20790;-79
2021/04/20 08:06:00;;;;;;;43.83;35.80;;;21.00;99.90;;;;;;5079288;28;20416;-79
2021/04/20 08:08:42;;;;;;;39.37;34.90;;;21.40;99.90;;;;;;5095648;28;20773;-79
2021/04/20 08:11:21;;;;;;;44.83;34.20;;;21.70;99.90;;;;;;5090814;28;20423;-79
2021/04/20 08:14:08;;;;;;;40.70;35.23;;;21.80;99.90;;;;;;5085780;28;20424;-79
2021/04/20 08:16:44;;;;;;;44.63;36.70;;;21.40;99.90;;;;;;5080967;28;20451;-78
2021/04/20 08:19:15;;;;;;;45.10;35.40;;;21.70;99.90;;;;;;5095470;28;20969;-79
2021/04/20 08:21:44;;;;;;;43.43;36.57;;;22.10;99.90;;;;;;5077970;28;20958;-79
2021/04/20 08:24:26;;;;;;;43.07;35.77;;;22.10;99.90;;;;;;5097657;28;20448;-78
2021/04/20 08:26:58;;;;;;;49.93;38.50;;;22.20;99.90;;;;;;5078306;28;20432;-79
2021/04/20 08:29:29;;;;;;;44.10;38.93;;;22.70;99.90;;;;;;5076738;28;20963;-79
2021/04/20 08:32:10;;;;;;;53.20;42.00;;;22.50;99.50;;;;;;5076967;28;20459;-79
2021/04/20 08:34:45;;;;;;;44.53;36.50;;;23.10;96.80;;;;;;5076306;28;20451;-79
2021/04/20 08:37:23;;;;;;;48.83;40.20;;;23.50;94.00;;;;;;5073751;28;20518;-79
2021/04/20 08:40:08;;;;;;;44.73;39.50;;;23.40;91.40;;;;;;5085587;28;20921;-79
2021/04/20 08:42:41;;;;;;;43.10;38.33;;;23.90;91.00;;;;;;5082773;28;20440;-80
2021/04/20 08:45:25;;;;;;;48.60;41.03;;;24.10;91.70;;;;;;5071945;28;20429;-79
2021/04/20 08:48:14;;;;;;;49.30;41.80;;;24.50;90.10;;;;;;5081075;28;20421;-79
2021/04/20 08:50:47;;;;;;;44.63;39.73;;;23.50;85.30;;;;;;5059835;28;21474;-79
2021/04/20 08:53:40;;;;;;;45.17;38.07;;;23.90;89.60;;;;;;5079372;28;20433;-79
2021/04/20 08:56:30;;;;;;;47.63;38.50;;;24.30;82.60;;;;;;5089696;28;20459;-79
2021/04/20 08:59:21;;;;;;;41.93;36.97;;;24.20;77.60;;;;;;5086393;28;20419;-79
2021/04/20 09:01:47;;;;;;;34.40;30.83;;;23.50;79.10;;;;;;5097438;28;20420;-79
2021/04/20 09:04:45;;;;;;;32.90;29.40;;;23.80;74.50;;;;;;5097872;28;20395;-79
2021/04/20 09:07:17;;;;;;;35.70;31.30;;;24.10;73.60;;;;;;5080022;28;20175;-79
2021/04/20 09:09:46;;;;;;;37.30;31.10;;;24.10;74.50;;;;;;5090509;28;20428;-79
2021/04/20 09:12:13;;;;;;;28.77;25.67;;;24.60;74.90;;;;;;5094821;28;20424;-80
2021/04/20 09:14:41;;;;;;;41.33;31.90;;;23.90;65.40;;;;;;5093971;28;20451;-79
2021/04/20 09:17:20;;;;;;;33.10;29.60;;;24.00;69.80;;;;;;5079839;28;20438;-79
2021/04/20 09:19:51;;;;;;;25.27;22.57;;;24.40;71.70;;;;;;5074543;28;20431;-79
2021/04/20 09:22:37;;;;;;;34.90;28.30;;;24.60;67.10;;;;;;5087464;28;20834;-79
2021/04/20 09:25:47;;;;;;;30.30;26.83;;;24.80;68.30;;;;;;5094881;28;20415;-79
2021/04/20 09:28:18;;;;;;;25.93;23.20;;;24.70;68.80;;;;;;5073355;28;20424;-79
2021/04/20 09:30:57;;;;;;;28.47;25.23;;;24.90;64.30;;;;;;5074471;28;20419;-78
2021/04/20 09:33:40;;;;;;;28.80;25.60;;;25.40;64.40;;;;;;5072742;28;20485;-78
2021/04/20 09:36:08;;;;;;;25.93;23.10;;;25.30;61.20;;;;;;5072378;28;20880;-79
2021/04/20 09:38:38;;;;;;;29.03;24.60;;;25.40;58.00;;;;;;5074637;28;20415;-79
2021/04/20 09:41:06;;;;;;;28.60;25.60;;;24.90;61.70;;;;;;5074199;28;20447;-79
2021/04/20 09:44:03;;;;;;;26.80;23.77;;;25.80;65.20;;;;;;5086932;28;20423;-79
2021/04/20 09:46:48;;;;;;;25.47;22.70;;;26.00;59.30;;;;;;5081741;28;20473;-80
2021/04/20 09:49:52;;;;;;;26.67;22.23;;;26.20;58.30;;;;;;5085376;28;20460;-80
2021/04/20 09:52:24;;;;;;;32.50;24.73;;;25.90;58.50;;;;;;5102137;28;20426;-80
2021/04/20 09:54:57;;;;;;;27.40;24.47;;;26.30;57.30;;;;;;5078440;28;20451;-75
2021/04/20 09:57:25;;;;;;;30.80;24.80;;;26.20;55.00;;;;;;5075509;28;20503;-75
2021/04/20 09:59:57;;;;;;;27.50;24.40;;;26.20;57.60;;;;;;5080276;28;20451;-75
2021/04/20 10:02:40;;;;;;;26.63;23.90;;;26.30;55.00;;;;;;5075677;28;20530;-75
2021/04/20 10:05:27;;;;;;;22.10;19.90;;;26.20;57.40;;;;;;5075815;28;20431;-75
2021/04/20 10:08:22;;;;;;;22.60;19.27;;;26.80;55.80;;;;;;5073813;28;20535;-75
2021/04/20 10:10:59;;;;;;;21.43;19.33;;;27.20;55.70;;;;;;5074046;28;20416;-75
2021/04/20 10:13:36;;;;;;;22.00;19.80;;;27.40;55.00;;;;;;5058123;28;20448;-75
2021/04/20 10:16:09;;;;;;;17.60;15.70;;;27.60;53.80;;;;;;5075108;28;20538;-75
2021/04/20 10:18:46;;;;;;;15.77;14.00;;;27.60;51.40;;;;;;5075437;28;20407;-75
2021/04/20 10:21:49;;;;;;;12.67;11.47;;;27.90;50.90;;;;;;5074910;28;20423;-75
2021/04/20 10:24:20;;;;;;;16.13;14.53;;;27.40;48.90;;;;;;5075055;28;20411;-75
2021/04/20 10:27:09;;;;;;;17.90;16.00;;;27.50;50.30;;;;;;5074956;28;20419;-75
2021/04/20 10:29:42;;;;;;;19.37;17.47;;;27.00;49.80;;;;;;5075004;28;20815;-75
2021/04/20 10:32:27;;;;;;;17.40;15.60;;;27.00;50.30;;;;;;5074961;28;20432;-75
2021/04/20 10:34:54;;;;;;;19.77;17.67;;;27.10;49.50;;;;;;5075048;28;20447;-75
2021/04/20 10:37:49;;;;;;;17.80;15.67;;;26.70;49.90;;;;;;5074860;28;20439;-75
2021/04/20 10:40:18;;;;;;;17.20;15.50;;;26.80;50.70;;;;;;5072869;28;20436;-75
2021/04/20 10:42:48;;;;;;;17.23;15.60;;;26.90;50.00;;;;;;5074534;28;20428;-75
2021/04/20 10:45:15;;;;;;;16.30;14.70;;;27.10;50.40;;;;;;5074747;28;20476;-75
2021/04/20 10:47:46;;;;;;;14.90;13.53;;;27.00;49.50;;;;;;5074245;28;20416;-75
2021/04/20 10:50:18;;;;;;;14.67;13.20;;;26.80;48.50;;;;;;5074465;28;20928;-75
2021/04/20 10:52:45;;;;;;;14.50;13.07;;;26.20;47.30;;;;;;5073779;28;20960;-75
2021/04/20 10:55:13;;;;;;;12.93;11.63;;;25.80;47.50;;;;;;5074717;28;20531;-75
2021/04/20 10:57:45;;;;;;;12.43;11.17;;;24.70;47.20;;;;;;5073342;28;20777;-75
2021/04/20 11:00:16;;;;;;;9.80;7.87;;;25.30;51.30;;;;;;5073775;28;20453;-75
2021/04/20 11:02:53;;;;;;;12.30;10.70;;;26.10;49.40;;;;;;5074891;28;20428;-75
2021/04/20 11:05:22;;;;;;;13.37;11.97;;;26.30;48.30;;;;;;5074818;28;20746;-75
2021/04/20 11:07:52;;;;;;;11.63;10.53;;;26.70;48.60;;;;;;5072958;28;20503;-76
2021/04/20 11:10:21;;;;;;;11.30;10.13;;;27.10;47.10;;;;;;5074072;28;20428;-76
2021/04/20 11:12:49;;;;;;;11.63;10.53;;;26.30;44.90;;;;;;5074304;28;20428;-76
2021/04/20 11:15:23;;;;;;;13.27;9.10;;;25.50;45.10;;;;;;5072614;28;20813;-76
2021/04/20 11:17:55;;;;;;;13.63;12.37;;;25.90;45.00;;;;;;5074047;28;20416;-75
2021/04/20 11:20:32;;;;;;;16.23;13.00;;;26.40;47.90;;;;;;5072760;28;20435;-76
2021/04/20 11:23:10;;;;;;;15.67;13.93;;;26.80;48.40;;;;;;5074118;28;20423;-75
2021/04/20 11:25:50;;;;;;;15.17;13.50;;;26.80;47.70;;;;;;5072858;28;20831;-76
2021/04/20 11:28:41;;;;;;;13.57;12.37;;;26.90;47.70;;;;;;5070954;28;20435;-75
2021/04/20 11:31:18;;;;;;;13.37;12.07;;;26.50;47.00;;;;;;5074854;28;20405;-75
2021/04/20 11:33:46;;;;;;;13.50;12.13;;;26.20;47.60;;;;;;5075087;28;20408;-75
2021/04/20 11:36:21;;;;;;;14.57;11.40;;;25.70;47.70;;;;;;5073919;28;20487;-75
2021/04/20 11:38:50;;;;;;;14.10;11.93;;;25.40;47.50;;;;;;5074288;28;20412;-75
2021/04/20 11:41:17;;;;;;;11.77;10.60;;;25.20;48.00;;;;;;5073606;28;20926;-76
2021/04/20 11:43:51;;;;;;;13.17;11.77;;;24.40;47.80;;;;;;5073945;28;20409;-75
2021/04/20 11:46:21;;;;;;;12.93;11.67;;;24.40;47.90;;;;;;5073560;28;20420;-75
2021/04/20 11:48:48;;;;;;;11.87;10.30;;;24.50;47.50;;;;;;5072170;28;20417;-76
2021/04/20 11:51:14;;;;;;;11.90;10.87;;;24.40;47.00;;;;;;5073370;28;20423;-76
2021/04/20 11:53:43;;;;;;;11.13;10.03;;;24.40;47.10;;;;;;5073778;28;20408;-76
2021/04/20 11:56:10;;;;;;;13.07;11.70;;;24.40;47.90;;;;;;5073167;28;20456;-76
2021/04/20 11:58:37;;;;;;;13.73;11.00;;;24.40;47.50;;;;;;5073463;28;20413;-75
2021/04/20 12:01:21;;;;;;;12.27;11.07;;;24.50;47.90;;;;;;5073015;28;20408;-75
2021/04/20 12:03:54;;;;;;;12.33;11.23;;;24.70;47.80;;;;;;5073145;28;20815;-76
2021/04/20 12:06:20;;;;;;;14.53;10.50;;;25.10;47.40;;;;;;5072001;28;20435;-76
2021/04/20 12:08:53;;;;;;;12.40;11.10;;;25.30;46.00;;;;;;5073043;28;20420;-76
2021/04/20 12:11:19;;;;;;;10.63;9.63;;;24.20;43.60;;;;;;5071490;28;20478;-76
2021/04/20 12:13:48;;;;;;;11.30;10.20;;;23.70;44.60;;;;;;5072810;28;20427;-75
2021/04/20 12:16:15;;;;;;;12.27;11.07;;;24.80;46.70;;;;;;5070251;28;20463;-75
2021/04/20 12:18:46;;;;;;;13.87;12.50;;;25.30;45.50;;;;;;5070100;28;20439;-76
2021/04/20 12:21:27;;;;;;;12.60;11.30;;;25.00;46.40;;;;;;5071436;28;20420;-75
2021/04/20 12:23:55;;;;;;;11.87;10.50;;;25.00;45.70;;;;;;5068558;28;20420;-75
2021/04/20 12:26:21;;;;;;;12.70;11.57;;;25.60;46.00;;;;;;5072087;28;20425;-75
2021/04/20 12:28:51;;;;;;;13.80;12.60;;;25.80;44.90;;;;;;5072528;28;20408;-77
2021/04/20 12:31:17;;;;;;;12.50;11.30;;;24.90;43.80;;;;;;5071994;28;20434;-75
2021/04/20 12:33:47;;;;;;;12.73;11.30;;;25.40;44.60;;;;;;5072719;28;20929;-76
2021/04/20 12:36:27;;;;;;;13.00;11.80;;;24.90;44.80;;;;;;5052727;28;20453;-76
2021/04/20 12:39:04;;;;;;;13.30;12.00;;;25.40;47.00;;;;;;5071445;28;20416;-76
2021/04/20 12:41:32;;;;;;;12.80;11.67;;;25.80;47.60;;;;;;5072790;28;20791;-76
2021/04/20 12:44:02;;;;;;;11.93;10.90;;;26.50;45.30;;;;;;5073207;28;20499;-76
2021/04/20 12:46:30;;;;;;;12.70;11.50;;;26.60;44.60;;;;;;5070960;28;20424;-76
2021/04/20 12:49:00;;;;;;;14.30;12.80;;;26.70;43.40;;;;;;5071965;28;20427;-76
2021/04/20 12:51:30;;;;;;;13.23;11.93;;;26.00;42.80;;;;;;5072082;28;20448;-75
2021/04/20 12:53:57;;;;;;;10.87;9.80;;;26.70;45.40;;;;;;5071359;28;20431;-76
2021/04/20 12:56:29;;;;;;;13.13;11.80;;;26.50;42.60;;;;;;5072483;28;20991;-75